sensor_id;sensor_type;location;lat;lon;timestamp;pressure;altitude;pressure_sealevel;temperature;humidity
78741;BME280;68062;48.726;9.370;2023-06-01T00:01:27;98854.59;;;12.27;80.80
78741;BME280;68062;48.726;9.370;2023-06-01T00:03:59;98845.06;;;12.33;80.70
78741;BME280;68062;48.726;9.370;2023-06-01T00:06:26;98838.09;;;12.45;80.52
78741;BME280;68062;48.726;9.370;2023-06-01T00:08:53;98839.78;;;12.54;79.34
78741;BME280;68062;48.726;9.370;2023-06-01T00:11:20;98813.09;;;12.53;79.12
78741;BME280;68062;48.726;9.370;2023-06-01T00:13:47;98842.22;;;12.69;78.33
78741;BME280;68062;48.726;9.370;2023-06-01T00:16:14;98832.06;;;12.49;78.63
78741;BME280;68062;48.726;9.370;2023-06-01T00:18:41;98841.44;;;12.56;78.70
78741;BME280;68062;48.726;9.370;2023-06-01T00:21:09;98836.41;;;12.44;79.23
78741;BME280;68062;48.726;9.370;2023-06-01T00:23:37;98843.31;;;12.39;80.05
78741;BME280;68062;48.726;9.370;2023-06-01T00:26:06;98839.91;;;12.38;83.39
78741;BME280;68062;48.726;9.370;2023-06-01T00:28:34;98846.97;;;12.11;83.75
78741;BME280;68062;48.726;9.370;2023-06-01T00:31:00;98838.53;;;11.83;84.54
78741;BME280;68062;48.726;9.370;2023-06-01T00:33:28;98847.06;;;11.89;85.69
78741;BME280;68062;48.726;9.370;2023-06-01T00:35:55;98831.69;;;11.77;84.91
78741;BME280;68062;48.726;9.370;2023-06-01T00:38:23;98834.94;;;12.09;84.45
78741;BME280;68062;48.726;9.370;2023-06-01T00:40:50;98841.91;;;11.89;82.79
78741;BME280;68062;48.726;9.370;2023-06-01T00:43:18;98847.09;;;11.86;84.37
78741;BME280;68062;48.726;9.370;2023-06-01T00:45:45;98818.00;;;11.66;83.18
78741;BME280;68062;48.726;9.370;2023-06-01T00:48:12;98835.97;;;11.80;83.12
78741;BME280;68062;48.726;9.370;2023-06-01T00:50:39;98841.22;;;11.61;83.65
78741;BME280;68062;48.726;9.370;2023-06-01T00:53:09;98844.59;;;11.72;84.88
78741;BME280;68062;48.726;9.370;2023-06-01T00:55:38;98844.66;;;11.60;85.67
78741;BME280;68062;48.726;9.370;2023-06-01T00:58:06;98844.69;;;11.54;86.47
78741;BME280;68062;48.726;9.370;2023-06-01T01:00:32;98837.69;;;11.77;87.57
78741;BME280;68062;48.726;9.370;2023-06-01T01:02:59;98835.91;;;11.89;88.00
78741;BME280;68062;48.726;9.370;2023-06-01T01:05:33;98844.44;;;11.96;nan
78741;BME280;68062;48.726;9.370;2023-06-01T01:08:07;98848.84;;;11.78;86.25
78741;BME280;68062;48.726;9.370;2023-06-01T01:10:41;98809.44;;;11.62;85.60
78741;BME280;68062;48.726;9.370;2023-06-01T01:13:11;98846.28;;;11.75;85.55
78741;BME280;68062;48.726;9.370;2023-06-01T01:15:45;98840.47;;;11.37;86.47
78741;BME280;68062;48.726;9.370;2023-06-01T01:18:15;98849.00;;;11.44;87.72
78741;BME280;68062;48.726;9.370;2023-06-01T01:20:50;98834.56;;;11.01;89.20
78741;BME280;68062;48.726;9.370;2023-06-01T01:23:31;98842.19;;;11.35;88.15
78741;BME280;68062;48.726;9.370;2023-06-01T01:26:23;98834.44;;;11.40;88.88
78741;BME280;68062;48.726;9.370;2023-06-01T01:28:54;98801.06;;;11.12;88.90
78741;BME280;68062;48.726;9.370;2023-06-01T01:31:25;98847.38;;;11.18;88.17
78741;BME280;68062;48.726;9.370;2023-06-01T01:33:55;98850.00;;;10.93;89.11
78741;BME280;68062;48.726;9.370;2023-06-01T01:36:24;98848.28;;;11.06;89.83
78741;BME280;68062;48.726;9.370;2023-06-01T01:38:51;98848.22;;;11.26;89.35
78741;BME280;68062;48.726;9.370;2023-06-01T01:41:18;98839.72;;;10.98;89.54
78741;BME280;68062;48.726;9.370;2023-06-01T01:43:45;98840.56;;;11.03;90.49
78741;BME280;68062;48.726;9.370;2023-06-01T01:46:21;98840.56;;;10.98;89.98
78741;BME280;68062;48.726;9.370;2023-06-01T01:48:54;98840.53;;;11.15;90.42
78741;BME280;68062;48.726;9.370;2023-06-01T01:51:29;98841.38;;;11.24;88.73
78741;BME280;68062;48.726;9.370;2023-06-01T01:53:59;98811.38;;;11.09;88.28
78741;BME280;68062;48.726;9.370;2023-06-01T01:56:26;98841.44;;;10.99;90.72
78741;BME280;68062;48.726;9.370;2023-06-01T01:58:53;98801.19;;;10.60;93.17
78741;BME280;68062;48.726;9.370;2023-06-01T02:01:23;98828.59;;;10.63;94.87
78741;BME280;68062;48.726;9.370;2023-06-01T02:03:57;98819.22;;;10.48;95.28
78741;BME280;68062;48.726;9.370;2023-06-01T02:06:25;98826.06;;;10.35;95.75
78741;BME280;68062;48.726;9.370;2023-06-01T02:08:52;98827.75;;;10.31;96.61
78741;BME280;68062;48.726;9.370;2023-06-01T02:11:19;98822.63;;;10.33;96.43
78741;BME280;68062;48.726;9.370;2023-06-01T02:13:46;98834.63;;;10.70;94.68
78741;BME280;68062;48.726;9.370;2023-06-01T02:16:13;98815.75;;;10.71;93.25
78741;BME280;68062;48.726;9.370;2023-06-01T02:18:43;98834.59;;;10.82;94.52
78741;BME280;68062;48.726;9.370;2023-06-01T02:21:12;98806.38;;;10.47;94.06
78741;BME280;68062;48.726;9.370;2023-06-01T02:23:39;98824.31;;;10.39;94.91
78741;BME280;68062;48.726;9.370;2023-06-01T02:26:06;98831.19;;;10.65;93.51
78741;BME280;68062;48.726;9.370;2023-06-01T02:28:33;98822.59;;;10.61;93.62
78741;BME280;68062;48.726;9.370;2023-06-01T02:31:00;98832.03;;;10.65;94.31
78741;BME280;68062;48.726;9.370;2023-06-01T02:33:27;98835.50;;;10.53;94.40
78741;BME280;68062;48.726;9.370;2023-06-01T02:35:55;98774.63;;;10.24;94.01
78741;BME280;68062;48.726;9.370;2023-06-01T02:38:22;98844.91;;;10.68;93.37
78741;BME280;68062;48.726;9.370;2023-06-01T02:40:49;98826.91;;;10.76;92.78
78741;BME280;68062;48.726;9.370;2023-06-01T02:43:16;98828.59;;;10.77;92.40
78741;BME280;68062;48.726;9.370;2023-06-01T02:45:43;98794.34;;;10.53;92.23
78741;BME280;68062;48.726;9.370;2023-06-01T02:48:10;98829.47;;;10.68;92.03
78741;BME280;68062;48.726;9.370;2023-06-01T02:50:38;98799.47;;;10.25;93.14
78741;BME280;68062;48.726;9.370;2023-06-01T02:53:06;98823.50;;;10.46;93.28
78741;BME280;68062;48.726;9.370;2023-06-01T02:55:33;98823.50;;;10.43;93.62
78741;BME280;68062;48.726;9.370;2023-06-01T02:58:26;98802.06;;;10.33;93.67
78741;BME280;68062;48.726;9.370;2023-06-01T03:01:21;98824.34;;;10.34;93.80
78741;BME280;68062;48.726;9.370;2023-06-01T03:03:48;98799.47;;;10.28;93.28
78741;BME280;68062;48.726;9.370;2023-06-01T03:06:18;98814.06;;;10.51;93.13
78741;BME280;68062;48.726;9.370;2023-06-01T03:08:56;98822.63;;;10.50;92.92
78741;BME280;68062;48.726;9.370;2023-06-01T03:11:44;98830.38;;;10.49;92.01
78741;BME280;68062;48.726;9.370;2023-06-01T03:14:10;98830.31;;;10.19;94.29
78741;BME280;68062;48.726;9.370;2023-06-01T03:16:37;98832.00;;;9.91;95.49
78741;BME280;68062;48.726;9.370;2023-06-01T03:19:14;98835.38;;;9.76;97.94
78741;BME280;68062;48.726;9.370;2023-06-01T03:21:42;98832.00;;;9.97;96.24
78741;BME280;68062;48.726;9.370;2023-06-01T03:24:10;98825.97;;;9.70;97.95
78741;BME280;68062;48.726;9.370;2023-06-01T03:26:38;98825.06;;;9.62;99.22
78741;BME280;68062;48.726;9.370;2023-06-01T03:29:06;98852.44;;;9.53;100.00
78741;BME280;68062;48.726;9.370;2023-06-01T03:31:34;98830.22;;;9.65;100.00
78741;BME280;68062;48.726;9.370;2023-06-01T03:34:02;98845.66;;;9.71;100.00
78741;BME280;68062;48.726;9.370;2023-06-01T03:36:29;98843.97;;;9.96;100.00
78741;BME280;68062;48.726;9.370;2023-06-01T03:38:58;98844.03;;;10.20;99.12
78741;BME280;68062;48.726;9.370;2023-06-01T03:41:28;98848.31;;;10.33;96.38
78741;BME280;68062;48.726;9.370;2023-06-01T03:43:54;98846.63;;;10.46;96.03
78741;BME280;68062;48.726;9.370;2023-06-01T03:46:21;98845.78;;;10.45;95.70
78741;BME280;68062;48.726;9.370;2023-06-01T03:48:48;98846.59;;;10.30;96.34
78741;BME280;68062;48.726;9.370;2023-06-01T03:51:16;98847.44;;;10.14;96.79
78741;BME280;68062;48.726;9.370;2023-06-01T03:53:43;98837.16;;;10.03;96.98
78741;BME280;68062;48.726;9.370;2023-06-01T03:56:10;98849.13;;;9.98;98.75
78741;BME280;68062;48.726;9.370;2023-06-01T03:58:41;98845.69;;;9.83;99.75
78741;BME280;68062;48.726;9.370;2023-06-01T04:01:09;98852.56;;;10.01;100.00
78741;BME280;68062;48.726;9.370;2023-06-01T04:03:38;98844.84;;;9.98;100.00
78741;BME280;68062;48.726;9.370;2023-06-01T04:06:05;98853.44;;;10.05;100.00
78741;BME280;68062;48.726;9.370;2023-06-01T04:08:41;98860.28;;;10.14;100.00
78741;BME280;68062;48.726;9.370;2023-06-01T04:11:14;98861.97;;;9.99;100.00
78741;BME280;68062;48.726;9.370;2023-06-01T04:13:43;98861.13;;;9.97;100.00
78741;BME280;68062;48.726;9.370;2023-06-01T04:16:10;98867.13;;;10.01;100.00
78741;BME280;68062;48.726;9.370;2023-06-01T04:18:38;98853.44;;;10.13;100.00
78741;BME280;68062;48.726;9.370;2023-06-01T04:21:05;98857.75;;;10.34;99.76
78741;BME280;68062;48.726;9.370;2023-06-01T04:23:33;98860.38;;;10.59;97.93
78741;BME280;68062;48.726;9.370;2023-06-01T04:26:00;98863.78;;;10.55;96.77
78741;BME280;68062;48.726;9.370;2023-06-01T04:28:29;98865.50;;;10.57;96.74
78741;BME280;68062;48.726;9.370;2023-06-01T04:30:57;98870.66;;;10.56;98.70
78741;BME280;68062;48.726;9.370;2023-06-01T04:33:26;98866.34;;;10.56;99.08
78741;BME280;68062;48.726;9.370;2023-06-01T04:35:53;98878.38;;;10.59;97.81
78741;BME280;68062;48.726;9.370;2023-06-01T04:38:22;98870.63;;;10.79;97.56
78741;BME280;68062;48.726;9.370;2023-06-01T04:40:51;98873.19;;;10.95;95.26
78741;BME280;68062;48.726;9.370;2023-06-01T04:43:19;98862.00;;;11.11;93.64
78741;BME280;68062;48.726;9.370;2023-06-01T04:45:47;98869.66;;;11.28;94.41
78741;BME280;68062;48.726;9.370;2023-06-01T04:48:16;98867.97;;;11.19;94.93
78741;BME280;68062;48.726;9.370;2023-06-01T04:50:55;98864.53;;;11.24;92.45
78741;BME280;68062;48.726;9.370;2023-06-01T04:53:22;98872.22;;;11.34;91.44
78741;BME280;68062;48.726;9.370;2023-06-01T04:55:50;98878.19;;;11.47;91.15
78741;BME280;68062;48.726;9.370;2023-06-01T04:58:17;98878.16;;;11.57;89.42
78741;BME280;68062;48.726;9.370;2023-06-01T05:00:45;98883.34;;;11.51;89.61
78741;BME280;68062;48.726;9.370;2023-06-01T05:03:12;98878.97;;;11.71;89.55
78741;BME280;68062;48.726;9.370;2023-06-01T05:05:40;98878.09;;;11.72;88.58
78741;BME280;68062;48.726;9.370;2023-06-01T05:08:07;98873.72;;;11.87;87.90
78741;BME280;68062;48.726;9.370;2023-06-01T05:10:33;98881.38;;;11.93;87.87
78741;BME280;68062;48.726;9.370;2023-06-01T05:13:01;98881.38;;;12.04;86.80
78741;BME280;68062;48.726;9.370;2023-06-01T05:15:27;98862.47;;;11.97;86.53
78741;BME280;68062;48.726;9.370;2023-06-01T05:17:57;98881.22;;;12.27;85.96
78741;BME280;68062;48.726;9.370;2023-06-01T05:20:23;98884.56;;;12.42;85.50
78741;BME280;68062;48.726;9.370;2023-06-01T05:22:56;98865.63;;;12.44;85.43
78741;BME280;68062;48.726;9.370;2023-06-01T05:25:23;98857.81;;;12.54;84.18
78741;BME280;68062;48.726;9.370;2023-06-01T05:27:50;98873.06;;;12.80;83.42
78741;BME280;68062;48.726;9.370;2023-06-01T05:30:16;98822.25;;;12.85;81.35
78741;BME280;68062;48.726;9.370;2023-06-01T05:32:46;98868.44;;;13.15;80.05
78741;BME280;68062;48.726;9.370;2023-06-01T05:35:18;98865.91;;;13.10;81.14
78741;BME280;68062;48.726;9.370;2023-06-01T05:37:48;98877.75;;;13.28;80.94
78741;BME280;68062;48.726;9.370;2023-06-01T05:40:17;98871.72;;;13.28;81.28
78741;BME280;68062;48.726;9.370;2023-06-01T05:42:45;98882.75;;;13.45;80.28
78741;BME280;68062;48.726;9.370;2023-06-01T05:45:12;98865.31;;;13.61;78.58
78741;BME280;68062;48.726;9.370;2023-06-01T05:47:40;98846.13;;;13.82;75.49
78741;BME280;68062;48.726;9.370;2023-06-01T05:50:07;98864.69;;;14.09;74.39
78741;BME280;68062;48.726;9.370;2023-06-01T05:52:34;98868.31;;;13.97;74.67
78741;BME280;68062;48.726;9.370;2023-06-01T05:55:02;98866.31;;;14.15;75.08
78741;BME280;68062;48.726;9.370;2023-06-01T05:57:30;98861.78;;;14.31;74.81
78741;BME280;68062;48.726;9.370;2023-06-01T05:59:57;98859.66;;;14.56;74.01
78741;BME280;68062;48.726;9.370;2023-06-01T06:02:24;98845.59;;;14.73;72.17
78741;BME280;68062;48.726;9.370;2023-06-01T06:04:51;98862.41;;;14.99;70.65
78741;BME280;68062;48.726;9.370;2023-06-01T06:07:18;98868.19;;;15.12;71.88
78741;BME280;68062;48.726;9.370;2023-06-01T06:09:44;98844.28;;;14.99;70.59
78741;BME280;68062;48.726;9.370;2023-06-01T06:12:11;98867.84;;;15.32;69.13
78741;BME280;68062;48.726;9.370;2023-06-01T06:14:39;98861.72;;;15.35;69.53
78741;BME280;68062;48.726;9.370;2023-06-01T06:17:07;98870.81;;;15.56;69.45
78741;BME280;68062;48.726;9.370;2023-06-01T06:19:34;98869.50;;;15.79;68.85
78741;BME280;68062;48.726;9.370;2023-06-01T06:22:01;98863.00;;;15.57;69.56
78741;BME280;68062;48.726;9.370;2023-06-01T06:24:27;98869.97;;;15.96;66.96
78741;BME280;68062;48.726;9.370;2023-06-01T06:26:54;98840.00;;;15.83;66.89
78741;BME280;68062;48.726;9.370;2023-06-01T06:29:21;98863.91;;;16.35;65.75
78741;BME280;68062;48.726;9.370;2023-06-01T06:31:49;98851.47;;;16.50;64.78
78741;BME280;68062;48.726;9.370;2023-06-01T06:34:16;98864.22;;;16.59;64.72
78741;BME280;68062;48.726;9.370;2023-06-01T06:36:43;98859.53;;;16.73;63.70
78741;BME280;68062;48.726;9.370;2023-06-01T06:39:10;98865.22;;;16.88;63.22
78741;BME280;68062;48.726;9.370;2023-06-01T06:41:36;98845.44;;;16.82;63.54
78741;BME280;68062;48.726;9.370;2023-06-01T06:44:03;98867.94;;;17.16;61.52
78741;BME280;68062;48.726;9.370;2023-06-01T06:46:30;98859.75;;;16.99;63.47
78741;BME280;68062;48.726;9.370;2023-06-01T06:48:59;98864.03;;;17.33;63.00
78741;BME280;68062;48.726;9.370;2023-06-01T06:51:26;98858.19;;;17.56;63.00
78741;BME280;68062;48.726;9.370;2023-06-01T06:53:53;98858.31;;;17.52;61.39
78741;BME280;68062;48.726;9.370;2023-06-01T06:56:20;98857.44;;;17.81;58.34
78741;BME280;68062;48.726;9.370;2023-06-01T06:58:47;98852.97;;;17.86;57.79
78741;BME280;68062;48.726;9.370;2023-06-01T07:01:14;98846.22;;;17.80;59.99
78741;BME280;68062;48.726;9.370;2023-06-01T07:03:40;98808.28;;;18.02;57.35
78741;BME280;68062;48.726;9.370;2023-06-01T07:06:08;98854.47;;;18.50;56.69
78741;BME280;68062;48.726;9.370;2023-06-01T07:08:35;98857.28;;;18.70;56.62
78741;BME280;68062;48.726;9.370;2023-06-01T07:11:01;98852.06;;;18.96;55.28
78741;BME280;68062;48.726;9.370;2023-06-01T07:13:28;98856.44;;;19.93;53.82
78741;BME280;68062;48.726;9.370;2023-06-01T07:15:55;98823.47;;;20.97;49.46
78741;BME280;68062;48.726;9.370;2023-06-01T07:18:22;98847.91;;;21.36;49.61
78741;BME280;68062;48.726;9.370;2023-06-01T07:20:49;98837.78;;;22.41;46.83
78741;BME280;68062;48.726;9.370;2023-06-01T07:23:18;98841.94;;;23.16;45.07
78741;BME280;68062;48.726;9.370;2023-06-01T07:25:45;98835.91;;;24.28;42.91
78741;BME280;68062;48.726;9.370;2023-06-01T07:28:12;98837.47;;;24.16;43.35
78741;BME280;68062;48.726;9.370;2023-06-01T07:30:39;98827.19;;;24.88;42.04
78741;BME280;68062;48.726;9.370;2023-06-01T07:33:05;98824.34;;;24.77;42.18
78741;BME280;68062;48.726;9.370;2023-06-01T07:35:33;98816.03;;;23.59;43.38
78741;BME280;68062;48.726;9.370;2023-06-01T07:38:00;98803.91;;;23.07;45.15
78741;BME280;68062;48.726;9.370;2023-06-01T07:40:31;98797.13;;;23.03;45.72
78741;BME280;68062;48.726;9.370;2023-06-01T07:42:59;98815.59;;;23.01;45.84
78741;BME280;68062;48.726;9.370;2023-06-01T07:45:25;98830.47;;;23.99;44.09
78741;BME280;68062;48.726;9.370;2023-06-01T07:47:52;98826.88;;;23.53;44.91
78741;BME280;68062;48.726;9.370;2023-06-01T07:50:19;98787.72;;;23.96;43.94
78741;BME280;68062;48.726;9.370;2023-06-01T07:52:47;98814.16;;;25.72;40.74
78741;BME280;68062;48.726;9.370;2023-06-01T07:55:15;98817.75;;;25.42;41.75
78741;BME280;68062;48.726;9.370;2023-06-01T07:57:44;98810.63;;;24.86;42.57
78741;BME280;68062;48.726;9.370;2023-06-01T08:00:11;98798.44;;;25.98;39.97
78741;BME280;68062;48.726;9.370;2023-06-01T08:02:39;98807.53;;;27.00;39.66
78741;BME280;68062;48.726;9.370;2023-06-01T08:05:07;98810.00;;;26.76;37.98
78741;BME280;68062;48.726;9.370;2023-06-01T08:07:35;98814.66;;;26.72;37.91
78741;BME280;68062;48.726;9.370;2023-06-01T08:10:04;98802.09;;;27.41;36.90
78741;BME280;68062;48.726;9.370;2023-06-01T08:12:31;98812.44;;;27.31;37.11
78741;BME280;68062;48.726;9.370;2023-06-01T08:14:59;98812.19;;;27.60;36.67
78741;BME280;68062;48.726;9.370;2023-06-01T08:17:26;98802.78;;;27.69;35.70
78741;BME280;68062;48.726;9.370;2023-06-01T08:19:52;98803.66;;;27.56;36.14
78741;BME280;68062;48.726;9.370;2023-06-01T08:22:20;98804.78;;;27.65;36.59
78741;BME280;68062;48.726;9.370;2023-06-01T08:24:47;98797.19;;;28.09;36.58
78741;BME280;68062;48.726;9.370;2023-06-01T08:27:17;98743.34;;;26.61;37.15
78741;BME280;68062;48.726;9.370;2023-06-01T08:29:46;98798.81;;;26.47;39.26
78741;BME280;68062;48.726;9.370;2023-06-01T08:32:16;98788.81;;;27.29;37.93
78741;BME280;68062;48.726;9.370;2023-06-01T08:34:43;98784.81;;;28.10;36.18
78741;BME280;68062;48.726;9.370;2023-06-01T08:37:10;98784.88;;;26.04;39.27
78741;BME280;68062;48.726;9.370;2023-06-01T08:39:36;98777.59;;;26.35;39.28
78741;BME280;68062;48.726;9.370;2023-06-01T08:42:07;98786.59;;;25.78;40.72
78741;BME280;68062;48.726;9.370;2023-06-01T08:44:35;98783.41;;;27.31;37.37
78741;BME280;68062;48.726;9.370;2023-06-01T08:47:04;98784.88;;;27.97;36.44
78741;BME280;68062;48.726;9.370;2023-06-01T08:49:34;98789.16;;;27.62;37.21
78741;BME280;68062;48.726;9.370;2023-06-01T08:52:03;98778.00;;;28.54;36.31
78741;BME280;68062;48.726;9.370;2023-06-01T08:54:32;98774.03;;;27.88;36.23
78741;BME280;68062;48.726;9.370;2023-06-01T08:56:59;98776.91;;;26.98;38.06
78741;BME280;68062;48.726;9.370;2023-06-01T08:59:28;98776.28;;;27.57;36.68
78741;BME280;68062;48.726;9.370;2023-06-01T09:01:57;98774.25;;;27.11;37.83
78741;BME280;68062;48.726;9.370;2023-06-01T09:04:24;98774.09;;;27.38;36.91
78741;BME280;68062;48.726;9.370;2023-06-01T09:06:52;98767.72;;;27.54;36.55
78741;BME280;68062;48.726;9.370;2023-06-01T09:09:23;98764.22;;;28.85;35.38
78741;BME280;68062;48.726;9.370;2023-06-01T09:12:17;98761.56;;;29.30;36.42
78741;BME280;68062;48.726;9.370;2023-06-01T09:14:45;98767.75;;;28.49;36.04
78741;BME280;68062;48.726;9.370;2023-06-01T09:17:13;98754.78;;;30.47;33.24
78741;BME280;68062;48.726;9.370;2023-06-01T09:19:43;98767.72;;;31.74;32.06
78741;BME280;68062;48.726;9.370;2023-06-01T09:22:12;98759.81;;;30.07;33.57
78741;BME280;68062;48.726;9.370;2023-06-01T09:24:38;98770.66;;;29.72;34.03
78741;BME280;68062;48.726;9.370;2023-06-01T09:27:07;98763.44;;;30.06;34.12
78741;BME280;68062;48.726;9.370;2023-06-01T09:29:34;98762.16;;;30.22;32.29
78741;BME280;68062;48.726;9.370;2023-06-01T09:32:01;98762.47;;;30.07;32.43
78741;BME280;68062;48.726;9.370;2023-06-01T09:34:28;98735.56;;;29.35;33.12
78741;BME280;68062;48.726;9.370;2023-06-01T09:36:55;98758.66;;;27.45;35.68
78741;BME280;68062;48.726;9.370;2023-06-01T09:39:24;98751.47;;;28.78;34.60
78741;BME280;68062;48.726;9.370;2023-06-01T09:41:53;98748.75;;;29.70;33.38
78741;BME280;68062;48.726;9.370;2023-06-01T09:44:25;98755.38;;;29.64;33.56
78741;BME280;68062;48.726;9.370;2023-06-01T09:47:04;98753.97;;;28.69;34.25
78741;BME280;68062;48.726;9.370;2023-06-01T09:49:35;98742.81;;;29.22;34.33
78741;BME280;68062;48.726;9.370;2023-06-01T09:52:12;98755.44;;;29.18;35.74
78741;BME280;68062;48.726;9.370;2023-06-01T09:54:43;98745.78;;;29.40;35.12
78741;BME280;68062;48.726;9.370;2023-06-01T09:57:11;98736.72;;;31.34;32.86
78741;BME280;68062;48.726;9.370;2023-06-01T09:59:40;98719.38;;;29.06;34.83
78741;BME280;68062;48.726;9.370;2023-06-01T10:02:12;98725.81;;;28.45;34.75
78741;BME280;68062;48.726;9.370;2023-06-01T10:04:41;98711.38;;;27.29;36.21
78741;BME280;68062;48.726;9.370;2023-06-01T10:07:09;98737.41;;;28.19;36.83
78741;BME280;68062;48.726;9.370;2023-06-01T10:09:38;98734.69;;;28.08;36.83
78741;BME280;68062;48.726;9.370;2023-06-01T10:12:08;98729.41;;;29.35;34.70
78741;BME280;68062;48.726;9.370;2023-06-01T10:14:36;98714.75;;;28.04;36.54
78741;BME280;68062;48.726;9.370;2023-06-01T10:17:05;98722.34;;;29.68;34.57
78741;BME280;68062;48.726;9.370;2023-06-01T10:19:33;98716.09;;;29.69;33.78
78741;BME280;68062;48.726;9.370;2023-06-01T10:22:02;98713.13;;;30.37;33.04
78741;BME280;68062;48.726;9.370;2023-06-01T10:24:29;98720.50;;;30.86;32.80
78741;BME280;68062;48.726;9.370;2023-06-01T10:27:03;98711.19;;;29.86;33.72
78741;BME280;68062;48.726;9.370;2023-06-01T10:29:33;98712.47;;;29.26;34.51
78741;BME280;68062;48.726;9.370;2023-06-01T10:32:00;98708.06;;;29.15;34.42
78741;BME280;68062;48.726;9.370;2023-06-01T10:34:38;98692.28;;;29.90;33.47
78741;BME280;68062;48.726;9.370;2023-06-01T10:37:13;98698.53;;;29.13;34.59
78741;BME280;68062;48.726;9.370;2023-06-01T10:39:39;98699.50;;;28.55;35.13
78741;BME280;68062;48.726;9.370;2023-06-01T10:42:38;98704.00;;;28.18;35.02
78741;BME280;68062;48.726;9.370;2023-06-01T10:45:36;98706.06;;;29.29;33.80
78741;BME280;68062;48.726;9.370;2023-06-01T10:48:04;98700.84;;;29.83;33.71
78741;BME280;68062;48.726;9.370;2023-06-01T10:50:32;98701.75;;;29.72;32.63
78741;BME280;68062;48.726;9.370;2023-06-01T10:53:29;98695.34;;;30.07;32.45
78741;BME280;68062;48.726;9.370;2023-06-01T10:56:19;98695.06;;;31.54;28.86
78741;BME280;68062;48.726;9.370;2023-06-01T10:58:49;98689.06;;;31.52;31.66
78741;BME280;68062;48.726;9.370;2023-06-01T11:01:39;98679.28;;;30.92;31.99
78741;BME280;68062;48.726;9.370;2023-06-01T11:04:06;98667.03;;;31.01;31.27
78741;BME280;68062;48.726;9.370;2023-06-01T11:06:34;98688.41;;;30.58;32.59
78741;BME280;68062;48.726;9.370;2023-06-01T11:09:03;98678.16;;;31.25;31.21
78741;BME280;68062;48.726;9.370;2023-06-01T11:11:59;98680.47;;;30.68;31.89
78741;BME280;68062;48.726;9.370;2023-06-01T11:14:27;98669.94;;;28.84;33.26
78741;BME280;68062;48.726;9.370;2023-06-01T11:20:02;98669.47;;;29.34;33.43
78741;BME280;68062;48.726;9.370;2023-06-01T11:22:36;98676.34;;;30.54;32.17
78741;BME280;68062;48.726;9.370;2023-06-01T11:25:05;98665.16;;;31.52;31.52
78741;BME280;68062;48.726;9.370;2023-06-01T11:27:33;98634.09;;;30.72;31.83
78741;BME280;68062;48.726;9.370;2023-06-01T11:30:01;98648.75;;;32.06;29.83
78741;BME280;68062;48.726;9.370;2023-06-01T11:32:32;98669.88;;;32.65;28.27
78741;BME280;68062;48.726;9.370;2023-06-01T11:35:15;98669.56;;;32.20;28.38
78741;BME280;68062;48.726;9.370;2023-06-01T11:37:42;98662.31;;;33.16;27.65
78741;BME280;68062;48.726;9.370;2023-06-01T11:40:11;98657.38;;;33.75;26.79
78741;BME280;68062;48.726;9.370;2023-06-01T11:42:39;98658.50;;;33.91;27.51
78741;BME280;68062;48.726;9.370;2023-06-01T11:45:07;98641.16;;;32.21;28.61
78741;BME280;68062;48.726;9.370;2023-06-01T11:47:42;98646.50;;;32.01;29.03
78741;BME280;68062;48.726;9.370;2023-06-01T11:50:20;98650.72;;;31.25;31.29
78741;BME280;68062;48.726;9.370;2023-06-01T11:52:47;98649.53;;;30.47;31.01
78741;BME280;68062;48.726;9.370;2023-06-01T11:55:14;98629.66;;;30.10;31.47
78741;BME280;68062;48.726;9.370;2023-06-01T11:57:42;98640.22;;;29.68;31.42
78741;BME280;68062;48.726;9.370;2023-06-01T12:00:11;98613.66;;;30.53;30.82
78741;BME280;68062;48.726;9.370;2023-06-01T12:02:39;98629.75;;;30.61;30.59
78741;BME280;68062;48.726;9.370;2023-06-01T12:05:09;98643.59;;;29.37;32.36
78741;BME280;68062;48.726;9.370;2023-06-01T12:07:43;98633.31;;;29.98;31.36
78741;BME280;68062;48.726;9.370;2023-06-01T12:10:11;98616.38;;;30.10;31.25
78741;BME280;68062;48.726;9.370;2023-06-01T12:12:40;98637.53;;;30.94;29.27
78741;BME280;68062;48.726;9.370;2023-06-01T12:15:11;98625.84;;;31.85;27.74
78741;BME280;68062;48.726;9.370;2023-06-01T12:17:48;98623.84;;;32.54;26.68
78741;BME280;68062;48.726;9.370;2023-06-01T12:20:27;98615.50;;;32.95;28.93
78741;BME280;68062;48.726;9.370;2023-06-01T12:22:54;98625.63;;;32.64;28.96
78741;BME280;68062;48.726;9.370;2023-06-01T12:25:21;98614.22;;;33.17;28.32
78741;BME280;68062;48.726;9.370;2023-06-01T12:28:02;98601.75;;;32.72;28.45
78741;BME280;68062;48.726;9.370;2023-06-01T12:30:29;98588.78;;;31.05;28.93
78741;BME280;68062;48.726;9.370;2023-06-01T12:32:56;98601.00;;;28.97;30.79
78741;BME280;68062;48.726;9.370;2023-06-01T12:35:23;98607.44;;;30.33;31.14
78741;BME280;68062;48.726;9.370;2023-06-01T12:38:04;98588.66;;;32.33;28.39
78741;BME280;68062;48.726;9.370;2023-06-01T12:40:32;98592.53;;;32.66;28.83
78741;BME280;68062;48.726;9.370;2023-06-01T12:43:00;98595.50;;;34.51;26.16
78741;BME280;68062;48.726;9.370;2023-06-01T12:45:34;98586.34;;;34.19;26.75
78741;BME280;68062;48.726;9.370;2023-06-01T12:48:03;98552.75;;;32.93;27.96
78741;BME280;68062;48.726;9.370;2023-06-01T12:50:30;98580.50;;;35.43;26.62
78741;BME280;68062;48.726;9.370;2023-06-01T12:52:57;98582.97;;;35.86;24.80
78741;BME280;68062;48.726;9.370;2023-06-01T12:55:25;98579.53;;;33.09;27.46
78741;BME280;68062;48.726;9.370;2023-06-01T12:57:53;98579.06;;;33.14;27.45
78741;BME280;68062;48.726;9.370;2023-06-01T13:00:20;98579.88;;;33.69;27.69
78741;BME280;68062;48.726;9.370;2023-06-01T13:02:48;98573.34;;;35.52;26.17
78741;BME280;68062;48.726;9.370;2023-06-01T13:05:16;98570.25;;;34.37;25.82
78741;BME280;68062;48.726;9.370;2023-06-01T13:07:43;98581.63;;;33.24;27.62
78741;BME280;68062;48.726;9.370;2023-06-01T13:10:11;98583.28;;;33.61;26.56
78741;BME280;68062;48.726;9.370;2023-06-01T13:12:39;98568.69;;;33.92;26.18
78741;BME280;68062;48.726;9.370;2023-06-01T13:15:08;98560.44;;;34.97;25.30